Time,TemperatureF,DewpointF,PressureIn,WindDirection,WindDirectionDegrees,WindSpeedMPH,WindSpeedGustMPH,Humidity,HourlyPrecipIn,Conditions,Clouds,dailyrainin,SoftwareType,DateUTC
2013-07-14 00:00:00,70.2,65.8,30.15,SSE,157,0.0,5.0,86,0.00,,,-99.99,WeatherLink 5.4,2013-07-14 04:00:00,
2013-07-14 00:30:00,70.2,65.8,30.15,SE,135,0.0,4.0,86,0.00,,,-99.99,WeatherLink 5.4,2013-07-14 04:30:00,
2013-07-14 01:00:00,70.1,66.0,30.14,North,-999,0.0,1.0,87,0.00,,,-99.99,WeatherLink 5.4,2013-07-14 05:00:00,
2013-07-14 01:30:00,70.2,66.5,30.14,SE,135,0.0,4.0,88,0.00,,,-99.99,WeatherLink 5.4,2013-07-14 05:30:00,
2013-07-14 02:00:00,70.1,67.3,30.15,SE,135,0.0,3.0,91,0.00,,,-99.99,WeatherLink 5.4,2013-07-14 06:00:00,
2013-07-14 02:30:00,69.4,67.0,30.14,SE,135,0.0,1.0,92,0.00,,,-99.99,WeatherLink 5.4,2013-07-14 06:30:00,
2013-07-14 03:00:00,69.2,67.7,30.14,SE,135,0.0,4.0,95,0.01,,,-99.99,WeatherLink 5.4,2013-07-14 07:00:00,
2013-07-14 03:30:00,67.9,67.3,30.13,SE,135,0.0,7.0,98,0.01,,,-99.99,WeatherLink 5.4,2013-07-14 07:30:00,
2013-07-14 04:00:00,67.5,67.2,30.14,SE,135,0.0,2.0,99,0.00,,,-99.99,WeatherLink 5.4,2013-07-14 08:00:00,
2013-07-14 04:30:00,67.8,67.5,30.14,SSE,157,0.0,2.0,99,0.01,,,-99.99,WeatherLink 5.4,2013-07-14 08:30:00,
2013-07-14 05:00:00,67.6,67.3,30.14,SSE,157,1.0,5.0,99,0.01,,,-99.99,WeatherLink 5.4,2013-07-14 09:00:00,
2013-07-14 05:30:00,67.6,67.3,30.15,SE,135,2.0,6.0,99,0.01,,,-99.99,WeatherLink 5.4,2013-07-14 09:30:00,
2013-07-14 06:00:00,68.4,67.8,30.15,SSE,157,1.0,6.0,98,0.01,,,-99.99,WeatherLink 5.4,2013-07-14 10:00:00,
2013-07-14 06:30:00,68.0,67.7,30.16,SSE,157,4.0,7.0,99,0.00,,,-99.99,WeatherLink 5.4,2013-07-14 10:30:00,
2013-07-14 07:00:00,68.0,67.4,30.17,SE,135,4.0,8.0,98,0.00,,,-99.99,WeatherLink 5.4,2013-07-14 11:00:00,
2013-07-14 07:30:00,68.3,67.4,30.19,SE,135,3.0,6.0,97,0.00,,,-99.99,WeatherLink 5.4,2013-07-14 11:30:00,
2013-07-14 08:00:00,68.8,67.3,30.20,SE,135,3.0,6.0,95,0.00,,,-99.99,WeatherLink 5.4,2013-07-14 12:00:00,
2013-07-14 08:01:00,68.8,67.3,30.20,SE,135,3.0,6.0,95,0.00,,,-99.99,WeatherLink 5.4,2013-07-14 12:01:00,
2013-07-14 08:02:00,68.8,67.3,30.20,SE,135,3.0,6.0,95,0.00,,OVC,0.03,VWS V14.01,2013-07-14 12:02:00,
2013-07-14 08:30:00,68.9,68.0,30.20,SE,135,2.0,7.0,97,0.00,,,-99.99,WeatherLink 5.4,2013-07-14 12:30:00,
2013-07-14 09:00:00,68.0,68.0,30.21,SSE,157,1.0,5.0,100,0.05,,,-99.99,WeatherLink 5.4,2013-07-14 13:00:00,
2013-07-14 09:30:00,68.0,68.0,30.22,SE,135,2.0,7.0,100,0.06,,,-99.99,WeatherLink 5.4,2013-07-14 13:30:00,
2013-07-14 10:00:00,68.1,68.1,30.22,SE,135,3.0,6.0,100,0.01,,,-99.99,WeatherLink 5.4,2013-07-14 14:00:00,
2013-07-14 10:01:00,68.1,68.1,30.22,SE,135,3.0,6.0,100,0.01,,,-99.99,WeatherLink 5.4,2013-07-14 14:01:00,
2013-07-14 10:30:00,68.9,68.3,30.22,SE,135,3.0,7.0,98,0.00,,,-99.99,WeatherLink 5.4,2013-07-14 14:30:00,
2013-07-14 11:00:00,70.0,68.8,30.22,SE,135,2.0,6.0,96,0.00,,,-99.99,WeatherLink 5.4,2013-07-14 15:00:00,
2013-07-14 11:30:00,70.4,69.2,30.23,SE,135,2.0,6.0,96,0.00,,,-99.99,WeatherLink 5.4,2013-07-14 15:30:00,
2013-07-14 11:31:00,70.4,69.2,30.23,SE,135,2.0,6.0,96,0.00,,,-99.99,WeatherLink 5.4,2013-07-14 15:31:00,
2013-07-14 12:00:00,70.8,68.4,30.23,SE,135,3.0,6.0,92,0.00,,,-99.99,WeatherLink 5.4,2013-07-14 16:00:00,
2013-07-14 12:30:00,72.3,69.8,30.24,SSE,157,3.0,8.0,92,0.00,,,-99.99,WeatherLink 5.4,2013-07-14 16:30:00,
2013-07-14 13:00:00,72.1,69.3,30.24,SSE,157,2.0,8.0,91,0.00,,,-99.99,WeatherLink 5.4,2013-07-14 17:00:00,
2013-07-14 13:30:00,73.4,69.3,30.24,SSE,157,4.0,9.0,87,0.00,,,-99.99,WeatherLink 5.4,2013-07-14 17:30:00,
2013-07-14 14:00:00,72.9,70.4,30.23,SE,135,3.0,6.0,92,0.00,,,-99.99,WeatherLink 5.4,2013-07-14 18:00:00,
2013-07-14 14:30:00,72.2,70.4,30.24,SSE,157,1.0,5.0,94,0.01,,,-99.99,WeatherLink 5.4,2013-07-14 18:30:00,
2013-07-14 14:31:00,72.2,70.4,30.24,SSE,157,1.0,5.0,94,0.01,,,-99.99,WeatherLink 5.4,2013-07-14 18:31:00,
2013-07-14 15:00:00,71.9,70.1,30.23,SE,135,0.0,2.0,94,0.01,,,-99.99,WeatherLink 5.4,2013-07-14 19:00:00,
2013-07-14 15:30:00,70.8,69.9,30.24,SE,135,0.0,5.0,97,0.07,,,-99.99,WeatherLink 5.4,2013-07-14 19:30:00,
2013-07-14 15:31:00,70.8,69.9,30.24,SE,135,0.0,5.0,97,0.07,,,-99.99,WeatherLink 5.4,2013-07-14 19:31:00,
2013-07-14 16:00:00,69.2,69.2,30.23,ESE,112,0.0,5.0,100,0.10,,,-99.99,WeatherLink 5.4,2013-07-14 20:00:00,
2013-07-14 16:30:00,69.3,69.3,30.22,SE,135,1.0,5.0,100,0.04,,,-99.99,WeatherLink 5.4,2013-07-14 20:30:00,
2013-07-14 17:00:00,68.9,68.9,30.21,SSE,157,2.0,14.0,100,0.05,,,-99.99,WeatherLink 5.4,2013-07-14 21:00:00,
2013-07-14 17:01:00,68.9,68.9,30.21,SSE,157,2.0,14.0,100,0.05,,,-99.99,WeatherLink 5.4,2013-07-14 21:01:00,
2013-07-14 17:30:00,68.3,68.3,30.20,SE,135,4.0,10.0,100,0.04,,,-99.99,WeatherLink 5.4,2013-07-14 21:30:00,
2013-07-14 18:00:00,68.7,68.7,30.21,SSE,157,1.0,8.0,100,0.00,,,-99.99,WeatherLink 5.4,2013-07-14 22:00:00,
2013-07-14 18:01:00,68.7,68.7,30.21,SSE,157,1.0,8.0,100,0.00,,,-99.99,WeatherLink 5.4,2013-07-14 22:01:00,
2013-07-14 18:30:00,69.3,68.1,30.21,SSE,157,3.0,10.0,96,0.00,,,-99.99,WeatherLink 5.4,2013-07-14 22:30:00,
2013-07-14 19:00:00,70.1,69.5,30.21,SE,135,6.0,16.0,98,0.00,,,-99.99,WeatherLink 5.4,2013-07-14 23:00:00,
2013-07-14 19:05:00,69.5,68.6,30.21,SE,138,6.0,19.0,97,0.00,,OVC,0.25,VWS V14.01,2013-07-14 23:05:00,
2013-07-14 19:30:00,69.5,67.4,30.22,SE,135,7.0,20.0,93,0.00,,,-99.99,WeatherLink 5.4,2013-07-14 23:30:00,
2013-07-14 19:31:00,69.5,67.4,30.22,SE,135,7.0,20.0,93,0.00,,,-99.99,WeatherLink 5.4,2013-07-14 23:31:00,
2013-07-14 20:00:00,70.3,67.5,30.23,SE,135,6.0,17.0,91,0.00,,,-99.99,WeatherLink 5.4,2013-07-15 00:00:00,
2013-07-14 20:30:00,70.7,67.0,30.23,SE,135,7.0,18.0,88,0.00,,,-99.99,WeatherLink 5.4,2013-07-15 00:30:00,
2013-07-14 21:00:00,70.9,67.2,30.24,SSE,157,7.0,14.0,88,0.00,,,-99.99,WeatherLink 5.4,2013-07-15 01:00:00,
2013-07-14 21:01:00,70.9,67.2,30.24,SSE,157,7.0,14.0,88,0.00,,,-99.99,WeatherLink 5.4,2013-07-15 01:01:00,
2013-07-14 21:30:00,71.0,67.3,30.25,SSE,157,5.0,15.0,88,0.00,,,-99.99,WeatherLink 5.4,2013-07-15 01:30:00,
2013-07-14 22:00:00,71.1,67.0,30.27,SSE,157,5.0,11.0,87,0.00,,,-99.99,WeatherLink 5.4,2013-07-15 02:00:00,
2013-07-14 22:01:00,71.1,67.0,30.27,SSE,157,5.0,11.0,87,0.00,,,-99.99,WeatherLink 5.4,2013-07-15 02:01:00,
2013-07-14 22:30:00,70.7,68.9,30.28,SE,135,6.0,15.0,94,0.01,,,-99.99,WeatherLink 5.4,2013-07-15 02:30:00,
2013-07-14 23:00:00,67.8,67.5,30.29,SE,135,6.0,13.0,99,0.01,,,-99.99,WeatherLink 5.4,2013-07-15 03:00:00,
2013-07-14 23:01:00,67.8,67.5,30.29,SE,135,6.0,13.0,99,0.01,,,-99.99,WeatherLink 5.4,2013-07-15 03:01:00,
2013-07-14 23:30:00,67.3,67.0,30.29,SE,135,8.0,18.0,99,0.01,,,-99.99,WeatherLink 5.4,2013-07-15 03:30:00,